METAR Data
IDs: Format: Raw Decoded Include TAF

Data at: 2356 UTC 25 Oct 2021

KHBV 252335Z AUTO 13006KT 10SM CLR 31/22 A2991 RMK AO2 T03050216
KHBV 252315Z AUTO 13006KT 10SM CLR 31/22 A2990 RMK AO2 T03110217
KHBV 252255Z AUTO 15006KT 10SM CLR 32/21 A2990 RMK AO2 T03190209
KHBV 252235Z AUTO 15009KT 10SM CLR 32/21 A2989 RMK AO2 T03200205
KHBV 252215Z AUTO 15010KT 10SM CLR 32/20 A2989 RMK AO2 T03230202
KHBV 252155Z AUTO 15008KT 10SM CLR 33/21 A2989 RMK AO2 T03270207
KHBV 252135Z AUTO 16003KT 10SM CLR 33/20 A2990 RMK AO2 T03300202
KHBV 252115Z AUTO 12007KT 10SM CLR 33/21 A2990 RMK AO2 T03270205
KHBV 252055Z AUTO 14004KT 10SM CLR 33/20 A2990 RMK AO2 T03310202
KHBV 252035Z AUTO 15004KT 10SM CLR 33/20 A2990 RMK AO2 T03320199
KHBV 252015Z AUTO 00000KT 10SM CLR 33/20 A2990 RMK AO2 T03260195
KHBV 251955Z AUTO 00000KT 10SM CLR 32/20 A2991 RMK AO2 T03210203
KHBV 251935Z AUTO 00000KT 10SM CLR 32/20 A2992 RMK AO2 T03230199
KHBV 251915Z AUTO 00000KT 10SM CLR 32/20 A2993 RMK AO2 T03190202
KHBV 251855Z AUTO 00000KT 10SM CLR 31/21 A2994 RMK AO2 T03140205
KHBV 251835Z AUTO 00000KT 10SM CLR 31/21 A2995 RMK AO2 T03060214
KHBV 251815Z AUTO 00000KT 10SM CLR 30/22 A2996 RMK AO2 T02980215
KHBV 251755Z AUTO 00000KT 10SM CLR 29/22 A2997 RMK AO2 T02940220 10294 20233
KHBV 251735Z AUTO 00000KT 10SM CLR 29/22 A2998 RMK AO2 T02850220
KHBV 251715Z AUTO 18006KT 10SM SCT019 29/22 A2999 RMK AO2 T02860221
KHBV 251655Z AUTO 00000KT 10SM BKN019 28/22 A2999 RMK AO2 T02820221
KHBV 251635Z AUTO 15007KT 10SM BKN019 28/22 A2999 RMK AO2 T02780220
KHBV 251615Z AUTO 00000KT 10SM OVC015 27/22 A2999 RMK AO2 T02710223
KHBV 251555Z AUTO 00000KT 10SM OVC015 27/22 A3000 RMK AO2 T02670222
KHBV 251535Z AUTO 00000KT 10SM OVC013 27/22 A3000 RMK AO2 T02650222
KHBV 251515Z AUTO 00000KT 10SM OVC011 26/22 A3000 RMK AO2 T02580223
KHBV 251455Z AUTO 00000KT 10SM OVC009 25/22 A2999 RMK AO2 T02520222
KHBV 251435Z AUTO 00000KT 10SM OVC007 25/22 A2998 RMK AO2 T02450224
KHBV 251415Z AUTO 00000KT 7SM OVC007 24/22 A2998 RMK AO2 T02410224
KHBV 251355Z AUTO 00000KT 10SM OVC007 24/22 A2996 RMK AO2 T02400223
KHBV 251335Z AUTO 00000KT 10SM OVC007 24/22 A2996 RMK AO2 T02390221
KHBV 251315Z AUTO 00000KT 10SM OVC006 24/22 A2995 RMK AO2 T02370220
KHBV 251255Z AUTO 00000KT 10SM OVC006 24/22 A2994 RMK AO2 T02360221
KHBV 251235Z AUTO 00000KT 10SM OVC006 24/22 A2993 RMK AO2 T02350222
KHBV 251215Z AUTO 00000KT 10SM OVC006 24/22 A2992 RMK AO2 T02350223
KHBV 251155Z AUTO 00000KT 10SM OVC006 23/22 A2992 RMK AO2 T02330222 10237 20222
KHBV 251135Z AUTO 00000KT 10SM OVC006 24/22 A2992 RMK AO2 T02350223
KHBV 251115Z AUTO 00000KT 10SM OVC006 24/22 A2992 RMK AO2 T02350223
KHBV 251055Z AUTO 00000KT 10SM OVC006 24/23 A2992 RMK AO2 T02370225
KHBV 251035Z AUTO 00000KT 10SM OVC006 24/23 A2992 RMK AO2 T02370225
KHBV 251015Z AUTO 00000KT 10SM OVC004 24/23 A2992 RMK AO2 T02350225
KHBV 250955Z AUTO 00000KT 10SM OVC004 24/23 A2992 RMK AO2 T02350226
KHBV 250935Z AUTO 00000KT 10SM OVC006 24/23 A2992 RMK AO2 T02350226
KHBV 250915Z AUTO 00000KT 10SM OVC006 23/23 A2992 RMK AO2 T02330228
KHBV 250855Z AUTO 00000KT 7SM OVC004 23/23 A2992 RMK AO2 T02320228
KHBV 250835Z AUTO 00000KT 4SM BR OVC004 23/23 A2993 RMK AO2 T02330230
KHBV 250815Z AUTO 00000KT 7SM OVC004 23/23 A2993 RMK AO2 T02310227
KHBV 250755Z AUTO 00000KT 4SM BR BKN004 22/22 A2993 RMK AO2 T02240220
KHBV 250735Z AUTO 00000KT 7SM SCT004 22/22 A2993 RMK AO2 T02230218
KHBV 250715Z AUTO 00000KT 10SM SCT002 23/22 A2993 RMK AO2 T02260221
KHBV 250655Z AUTO 00000KT 10SM CLR 23/22 A2992 RMK AO2 T02270220 403550227
KHBV 250635Z AUTO 00000KT 10SM CLR 23/22 A2991 RMK AO2 T02310223
KHBV 250615Z AUTO 00000KT 10SM CLR 23/22 A2991 RMK AO2 T02340224
KHBV 250555Z AUTO 00000KT 10SM CLR 24/23 A2991 RMK AO2 T02360225 10310 20236
KHBV 250535Z AUTO 00000KT 10SM CLR 24/23 A2991 RMK AO2 T02370226
KHBV 250515Z AUTO 00000KT 10SM CLR 24/23 A2991 RMK AO2 T02400228
KHBV 250455Z AUTO 00000KT 10SM CLR 24/23 A2991 RMK AO2 T02410230
KHBV 250435Z AUTO 00000KT 10SM CLR 24/23 A2991 RMK AO2 T02430231
KHBV 250415Z AUTO 00000KT 10SM CLR 25/23 A2990 RMK AO2 T02460232
KHBV 250355Z AUTO 00000KT 10SM CLR 25/23 A2990 RMK AO2 T02480233
KHBV 250335Z AUTO 16004KT 10SM CLR 25/23 A2988 RMK AO2 T02510233
KHBV 250315Z AUTO 00000KT 10SM CLR 26/24 A2988 RMK AO2 T02550235
KHBV 250255Z AUTO 15010KT 10SM CLR 26/24 A2988 RMK AO2 T02580235
KHBV 250235Z AUTO 15004KT 10SM CLR 26/24 A2987 RMK AO2 T02600236
KHBV 250215Z AUTO 00000KT 10SM CLR 27/24 A2986 RMK AO2 T02650235
KHBV 250155Z AUTO 14007KT 10SM CLR 27/23 A2985 RMK AO2 T02700234
KHBV 250135Z AUTO 13008KT 10SM CLR 28/23 A2984 RMK AO2 T02750233
KHBV 250115Z AUTO 13008KT 10SM CLR 28/23 A2983 RMK AO2 T02810225
KHBV 250055Z AUTO 00000KT 10SM CLR 29/21 A2982 RMK AO2 T02920205
KHBV 250035Z AUTO 00000KT 10SM CLR 30/21 A2982 RMK AO2 T02980205
KHBV 250015Z AUTO 15007KT 10SM CLR 30/21 A2981 RMK AO2 T03020205
KHBV 242355Z AUTO 14009KT 10SM CLR 31/20 A2980 RMK AO2 T03120204 10355 20312
KHBV 242335Z AUTO 14010G14KT 10SM CLR 32/20 A2980 RMK AO2 T03220202
KHBV 242315Z AUTO 14012KT 10SM CLR 33/20 A2980 RMK AO2 T03310202
KHBV 242255Z AUTO 13010G14KT 10SM CLR 34/19 A2979 RMK AO2 T03360194
KHBV 242235Z AUTO 13008KT 10SM CLR 34/19 A2980 RMK AO2 T03440192
KHBV 242215Z AUTO 12008KT 10SM CLR 35/20 A2980 RMK AO2 T03460195
KHBV 242155Z AUTO 16007KT 10SM CLR 35/19 A2980 RMK AO2 T03470190
KHBV 242135Z AUTO 00000KT 10SM CLR 35/18 A2979 RMK AO2 T03490183
KHBV 242115Z AUTO 15009KT 10SM CLR 35/19 A2979 RMK AO2 T03540189
KHBV 242055Z AUTO 18005KT 10SM CLR 35/19 A2979 RMK AO2 T03540185
KHBV 242035Z AUTO 21003KT 10SM CLR 35/19 A2979 RMK AO2 T03460187
KHBV 242015Z AUTO 00000KT 10SM CLR 34/19 A2980 RMK AO2 T03440188
KHBV 241955Z AUTO 00000KT 10SM CLR 34/19 A2980 RMK AO2 T03440187
KHBV 241935Z AUTO 13007KT 10SM CLR 34/19 A2980 RMK AO2 T03390192
KHBV 241915Z AUTO 00000KT 10SM CLR 34/19 A2981 RMK AO2 T03390193
KHBV 241855Z AUTO 00000KT 10SM CLR 33/20 A2982 RMK AO2 T03340195
KHBV 241835Z AUTO 00000KT 10SM CLR 33/20 A2983 RMK AO2 T03290199
KHBV 241815Z AUTO 18004KT 10SM CLR 33/20 A2984 RMK AO2 T03280200
KHBV 241755Z AUTO 00000KT 10SM CLR 33/20 A2984 RMK AO2 T03250204 10325 20230
KHBV 241735Z AUTO 16009KT 10SM CLR 32/21 A2985 RMK AO2 T03170205
KHBV 241715Z AUTO 17005KT 10SM CLR 31/20 A2986 RMK AO2 T03110204
KHBV 241655Z AUTO 00000KT 10SM CLR 31/21 A2986 RMK AO2 T03050206
KHBV 241635Z AUTO 00000KT 10SM CLR 30/21 A2987 RMK AO2 T02950206
KHBV 241615Z AUTO 17004KT 10SM SCT027 29/21 A2987 RMK AO2 T02930211
KHBV 241555Z AUTO 17005KT 10SM SCT024 28/21 A2987 RMK AO2 T02830212
KHBV 241535Z AUTO 19008KT 10SM CLR 28/21 A2987 RMK AO2 T02750212
KHBV 241515Z AUTO 15007KT 10SM CLR 27/22 A2988 RMK AO2 T02710215
KHBV 241455Z AUTO 18005KT 10SM SCT012 26/22 A2987 RMK AO2 T02570217
KHBV 241435Z AUTO 18007KT 10SM BKN012 25/22 A2986 RMK AO2 T02530220
KHBV 241415Z AUTO 18007KT 10SM BKN010 BKN015 24/22 A2985 RMK AO2 T02410220
KHBV 241355Z AUTO 00000KT 10SM OVC010 24/22 A2985 RMK AO2 T02370220
KHBV 241335Z AUTO 00000KT 10SM BKN010 OVC013 24/22 A2984 RMK AO2 T02350220
KHBV 241315Z AUTO 00000KT 10SM OVC008 23/22 A2983 RMK AO2 T02320220
KHBV 241255Z AUTO 00000KT 10SM OVC008 23/22 A2983 RMK AO2 T02300220
KHBV 241235Z AUTO 00000KT 10SM OVC008 23/22 A2982 RMK AO2 T02300220
KHBV 241215Z AUTO 00000KT 10SM OVC008 23/22 A2982 RMK AO2 T02300220